PWSweather.com
Personal Weather Stations
Station Observations
CLIFTONPWS
PenrithGB CA102ES

PenrithGB CA102ES

Lat: 54.630933, Lon: -2.718524

Elevation: 521

Station Type: Maplin N96GY

http://www.cliftonpws.co.uk/weather

Latest ConditionsUpdated 9:15:00 PM GMT Thursday, Oct 18, 2018
Currently Today's Max Today's Min Today's Average
Temperature 37.4°F3.0°C 52.3°F11.3°C 33.8°F1.0°C 41.8°F5.4°C
Dew Point 35.8°F2.1°C 47.4°F8.6°C 33.3°F0.7°C 39.4°F4.1°C
Winds 0.9 mph SW1.4 kmh SW 1.7 mph -2.7 kmh - - 0.5 mph 0.8 kmh
Wind Gusts 3.1 mph5.0 kmh 4.5 mph7.2 kmh - -
Humidity 94% 99% 73% 92%
Pressure 30.25 in1024.4 mb 30.34 in1027.4 mb 30.24 in1024.0 mb -
Hour Temp Dew Point Humidity Winds Wind Gusts Pressure Precip Precip Rate Daily Precip Total
09:15 PM 37.4°F3.0°C 35.8°F2.1°C 94% 0.9 mph SW1.4 kmh SW 3.1 mph5.0 kmh 30.25 in1024.4 mb 0.00 in0.0 mm 0.00 in0.0 mm 0.00 in0.0 mm
09:00 PM 37.8°F3.2°C 35.9°F2.2°C 93% 0.8 mph SW1.3 kmh SW 3.1 mph5.0 kmh 30.25 in1024.4 mb 0.00 in0.0 mm 0.00 in0.0 mm 0.00 in0.0 mm
08:45 PM 38.1°F3.4°C 36.3°F2.4°C 93% 0.5 mph S0.8 kmh S 2.2 mph3.5 kmh 30.25 in1024.4 mb 0.00 in0.0 mm 0.00 in0.0 mm 0.00 in0.0 mm
08:30 PM 38.8°F3.8°C 36.7°F2.6°C 92% 0.3 mph S0.5 kmh S 2.2 mph3.5 kmh 30.25 in1024.4 mb 0.00 in0.0 mm 0.00 in0.0 mm 0.00 in0.0 mm
08:15 PM 39.4°F4.1°C 37.2°F2.9°C 92% 0.4 mph S0.6 kmh S 2.2 mph3.5 kmh 30.25 in1024.4 mb 0.00 in0.0 mm 0.00 in0.0 mm 0.00 in0.0 mm
08:00 PM 39.7°F4.3°C 37.3°F2.9°C 91% 0.3 mph SW0.5 kmh SW 2.2 mph3.5 kmh 30.25 in1024.4 mb 0.00 in0.0 mm 0.00 in0.0 mm 0.00 in0.0 mm
07:45 PM 40.6°F4.8°C 37.9°F3.3°C 90% Calm Calm 1.6 mph2.6 kmh 30.25 in1024.4 mb 0.00 in0.0 mm 0.00 in0.0 mm 0.00 in0.0 mm
07:30 PM 41.0°F5.0°C 38.3°F3.5°C 90% 0.2 mph NE0.3 kmh NE 1.6 mph2.6 kmh 30.25 in1024.4 mb 0.00 in0.0 mm 0.00 in0.0 mm 0.00 in0.0 mm
07:15 PM 41.5°F5.3°C 38.8°F3.8°C 90% 1.0 mph SW1.6 kmh SW 3.1 mph5.0 kmh 30.25 in1024.4 mb 0.00 in0.0 mm 0.00 in0.0 mm 0.00 in0.0 mm
07:00 PM 41.9°F5.5°C 38.9°F3.8°C 89% 1.4 mph SW2.3 kmh SW 3.8 mph6.1 kmh 30.25 in1024.4 mb 0.00 in0.0 mm 0.00 in0.0 mm 0.00 in0.0 mm
06:45 PM 42.1°F5.6°C 39.1°F3.9°C 89% 1.7 mph SW2.7 kmh SW 3.8 mph6.1 kmh 30.25 in1024.4 mb 0.00 in0.0 mm 0.00 in0.0 mm 0.00 in0.0 mm
06:30 PM 42.4°F5.8°C 39.1°F3.9°C 88% 0.4 mph SW0.6 kmh SW 2.2 mph3.5 kmh 30.25 in1024.4 mb 0.00 in0.0 mm 0.00 in0.0 mm 0.00 in0.0 mm
06:15 PM 42.8°F6.0°C 39.2°F4.0°C 87% 0.6 mph SSW1.0 kmh SSW 2.2 mph3.5 kmh 30.24 in1024.0 mb 0.00 in0.0 mm 0.00 in0.0 mm 0.00 in0.0 mm
06:00 PM 43.3°F6.3°C 39.4°F4.1°C 86% 0.4 mph SSW0.6 kmh SSW 2.2 mph3.5 kmh 30.25 in1024.4 mb 0.00 in0.0 mm 0.00 in0.0 mm 0.00 in0.0 mm
05:45 PM 44.1°F6.7°C 39.8°F4.3°C 85% 1.1 mph SSW1.8 kmh SSW 3.1 mph5.0 kmh 30.26 in1024.7 mb 0.00 in0.0 mm 0.00 in0.0 mm 0.00 in0.0 mm
05:30 PM 45.1°F7.3°C 40.3°F4.6°C 83% 1.5 mph SW2.4 kmh SW 3.1 mph5.0 kmh 30.26 in1024.7 mb 0.00 in0.0 mm 0.00 in0.0 mm 0.00 in0.0 mm
05:15 PM 46.6°F8.1°C 41.1°F5.1°C 81% 0.1 mph S0.2 kmh S 1.6 mph2.6 kmh 30.26 in1024.7 mb 0.00 in0.0 mm 0.00 in0.0 mm 0.00 in0.0 mm
05:00 PM 47.5°F8.6°C 41.3°F5.2°C 79% 0.4 mph S0.6 kmh S 1.6 mph2.6 kmh 30.26 in1024.7 mb 0.00 in0.0 mm 0.00 in0.0 mm 0.00 in0.0 mm
04:45 PM 48.9°F9.4°C 42.0°F5.6°C 77% 1.0 mph SW1.6 kmh SW 3.1 mph5.0 kmh 30.27 in1025.1 mb 0.00 in0.0 mm 0.00 in0.0 mm 0.00 in0.0 mm
04:30 PM 50.4°F10.2°C 42.7°F5.9°C 75% 0.1 mph S0.2 kmh S 1.6 mph2.6 kmh 30.27 in1025.1 mb 0.00 in0.0 mm 0.00 in0.0 mm 0.00 in0.0 mm
04:15 PM 51.1°F10.6°C 43.4°F6.3°C 75% 0.3 mph SE0.5 kmh SE 3.1 mph5.0 kmh 30.27 in1025.1 mb 0.00 in0.0 mm 0.00 in0.0 mm 0.00 in0.0 mm
04:00 PM 51.6°F10.9°C 43.2°F6.2°C 73% 0.1 mph SSE0.2 kmh SSE 2.2 mph3.5 kmh 30.27 in1025.1 mb 0.00 in0.0 mm 0.00 in0.0 mm 0.00 in0.0 mm
03:45 PM 51.8°F11.0°C 43.4°F6.3°C 73% Calm Calm 1.6 mph2.6 kmh 30.27 in1025.1 mb 0.00 in0.0 mm 0.00 in0.0 mm 0.00 in0.0 mm
03:30 PM 51.6°F10.9°C 43.6°F6.4°C 74% 0.7 mph S1.1 kmh S 2.2 mph3.5 kmh 30.27 in1025.1 mb 0.00 in0.0 mm 0.00 in0.0 mm 0.00 in0.0 mm
03:15 PM 52.0°F11.1°C 44.3°F6.8°C 75% 0.9 mph SSE1.4 kmh SSE 3.1 mph5.0 kmh 30.27 in1025.1 mb 0.00 in0.0 mm 0.00 in0.0 mm 0.00 in0.0 mm
03:00 PM 52.2°F11.2°C 44.8°F7.1°C 76% 0.7 mph SSE1.1 kmh SSE 4.5 mph7.2 kmh 30.27 in1025.1 mb 0.00 in0.0 mm 0.00 in0.0 mm 0.00 in0.0 mm
02:45 PM 52.3°F11.3°C 45.7°F7.6°C 78% 0.4 mph NE0.6 kmh NE 2.2 mph3.5 kmh 30.27 in1025.1 mb 0.00 in0.0 mm 0.00 in0.0 mm 0.00 in0.0 mm
02:30 PM 52.2°F11.2°C 45.8°F7.7°C 79% 0.6 mph NE1.0 kmh NE 2.2 mph3.5 kmh 30.28 in1025.4 mb 0.00 in0.0 mm 0.00 in0.0 mm 0.00 in0.0 mm
02:15 PM 52.0°F11.1°C 45.7°F7.6°C 79% 0.7 mph NE1.1 kmh NE 3.1 mph5.0 kmh 30.28 in1025.4 mb 0.00 in0.0 mm 0.00 in0.0 mm 0.00 in0.0 mm
02:00 PM 52.2°F11.2°C 45.5°F7.5°C 78% 0.8 mph NE1.3 kmh NE 3.1 mph5.0 kmh 30.29 in1025.7 mb 0.00 in0.0 mm 0.00 in0.0 mm 0.00 in0.0 mm
01:45 PM 51.8°F11.0°C 45.2°F7.3°C 78% 1.1 mph N1.8 kmh N 4.5 mph7.2 kmh 30.29 in1025.7 mb 0.00 in0.0 mm 0.00 in0.0 mm 0.00 in0.0 mm
01:30 PM 51.1°F10.6°C 45.1°F7.3°C 80% 1.6 mph NW2.6 kmh NW 4.5 mph7.2 kmh 30.29 in1025.7 mb 0.00 in0.0 mm 0.00 in0.0 mm 0.00 in0.0 mm
01:15 PM 50.7°F10.4°C 45.7°F7.6°C 83% 1.0 mph NNW1.6 kmh NNW 3.1 mph5.0 kmh 30.29 in1025.7 mb 0.00 in0.0 mm 0.00 in0.0 mm 0.00 in0.0 mm
01:00 PM 50.2°F10.1°C 46.5°F8.1°C 87% 1.5 mph NNE2.4 kmh NNE 3.8 mph6.1 kmh 30.30 in1026.1 mb 0.00 in0.0 mm 0.00 in0.0 mm 0.00 in0.0 mm
12:45 PM 49.6°F9.8°C 46.8°F8.2°C 90% 1.0 mph N1.6 kmh N 3.8 mph6.1 kmh 30.30 in1026.1 mb 0.00 in0.0 mm 0.00 in0.0 mm 0.00 in0.0 mm
12:30 PM 48.9°F9.4°C 47.0°F8.3°C 93% 1.1 mph NW1.8 kmh NW 3.1 mph5.0 kmh 30.30 in1026.1 mb 0.00 in0.0 mm 0.00 in0.0 mm 0.00 in0.0 mm
12:15 PM 48.2°F9.0°C 47.4°F8.6°C 97% 1.3 mph NNW2.1 kmh NNW 3.8 mph6.1 kmh 30.31 in1026.4 mb 0.00 in0.0 mm 0.00 in0.0 mm 0.00 in0.0 mm
12:00 PM 47.5°F8.6°C 47.2°F8.4°C 99% 0.9 mph NW1.4 kmh NW 3.1 mph5.0 kmh 30.31 in1026.4 mb 0.00 in0.0 mm 0.00 in0.0 mm 0.00 in0.0 mm
11:45 AM 46.6°F8.1°C 46.3°F7.9°C 99% 1.0 mph N1.6 kmh N 3.8 mph6.1 kmh 30.30 in1026.1 mb 0.00 in0.0 mm 0.00 in0.0 mm 0.00 in0.0 mm
11:30 AM 45.1°F7.3°C 44.9°F7.2°C 99% 0.5 mph NNE0.8 kmh NNE 2.2 mph3.5 kmh 30.31 in1026.4 mb 0.00 in0.0 mm 0.00 in0.0 mm 0.00 in0.0 mm
11:15 AM 44.2°F6.8°C 44.0°F6.7°C 99% 0.9 mph NE1.4 kmh NE 3.8 mph6.1 kmh 30.32 in1026.8 mb 0.00 in0.0 mm 0.00 in0.0 mm 0.00 in0.0 mm
11:00 AM 43.5°F6.4°C 43.3°F6.3°C 99% 0.7 mph ENE1.1 kmh ENE 3.8 mph6.1 kmh 30.32 in1026.8 mb 0.00 in0.0 mm 0.00 in0.0 mm 0.00 in0.0 mm
10:45 AM 42.6°F5.9°C 42.4°F5.8°C 99% 0.7 mph ENE1.1 kmh ENE 3.1 mph5.0 kmh 30.32 in1026.8 mb 0.00 in0.0 mm 0.00 in0.0 mm 0.00 in0.0 mm
10:30 AM 41.5°F5.3°C 41.3°F5.2°C 99% 0.4 mph NE0.6 kmh NE 3.1 mph5.0 kmh 30.32 in1026.8 mb 0.00 in0.0 mm 0.00 in0.0 mm 0.00 in0.0 mm
10:15 AM 41.0°F5.0°C 40.7°F4.8°C 99% 1.4 mph ENE2.3 kmh ENE 4.5 mph7.2 kmh 30.33 in1027.1 mb 0.00 in0.0 mm 0.00 in0.0 mm 0.00 in0.0 mm
10:00 AM 40.3°F4.6°C 40.0°F4.4°C 99% 0.3 mph ENE0.5 kmh ENE 3.1 mph5.0 kmh 30.33 in1027.1 mb 0.00 in0.0 mm 0.00 in0.0 mm 0.00 in0.0 mm
09:45 AM 39.4°F4.1°C 39.1°F3.9°C 99% 0.2 mph ENE0.3 kmh ENE 2.2 mph3.5 kmh 30.34 in1027.4 mb 0.00 in0.0 mm 0.00 in0.0 mm 0.00 in0.0 mm
09:30 AM 38.7°F3.7°C 38.4°F3.6°C 99% 1.3 mph NNE2.1 kmh NNE 3.8 mph6.1 kmh 30.34 in1027.4 mb 0.00 in0.0 mm 0.00 in0.0 mm 0.00 in0.0 mm
09:15 AM 38.1°F3.4°C 37.9°F3.3°C 99% 0.3 mph NE0.5 kmh NE 2.2 mph3.5 kmh 30.33 in1027.1 mb 0.00 in0.0 mm 0.00 in0.0 mm 0.00 in0.0 mm
09:00 AM 37.2°F2.9°C 37.0°F2.8°C 99% 0.1 mph NE0.2 kmh NE 2.2 mph3.5 kmh 30.33 in1027.1 mb 0.00 in0.0 mm 0.00 in0.0 mm 0.00 in0.0 mm
08:45 AM 36.7°F2.6°C 36.4°F2.4°C 99% Calm Calm 2.2 mph3.5 kmh 30.33 in1027.1 mb 0.00 in0.0 mm 0.00 in0.0 mm 0.00 in0.0 mm
08:30 AM 36.7°F2.6°C 36.4°F2.4°C 99% 0.2 mph NE0.3 kmh NE 2.2 mph3.5 kmh 30.32 in1026.8 mb 0.00 in0.0 mm 0.00 in0.0 mm 0.00 in0.0 mm
08:15 AM 36.0°F2.2°C 35.7°F2.1°C 99% Calm Calm -- 30.33 in1027.1 mb 0.00 in0.0 mm 0.00 in0.0 mm 0.00 in0.0 mm
08:00 AM 35.4°F1.9°C 35.2°F1.8°C 99% Calm Calm 1.6 mph2.6 kmh 30.33 in1027.1 mb 0.00 in0.0 mm 0.00 in0.0 mm 0.00 in0.0 mm
07:45 AM 34.7°F1.5°C 34.4°F1.3°C 99% Calm Calm 1.6 mph2.6 kmh 30.32 in1026.8 mb 0.00 in0.0 mm 0.00 in0.0 mm 0.00 in0.0 mm
07:30 AM 34.0°F1.1°C 33.7°F0.9°C 99% Calm Calm 0.7 mph1.1 kmh 30.32 in1026.8 mb 0.00 in0.0 mm 0.00 in0.0 mm 0.00 in0.0 mm
07:15 AM 33.8°F1.0°C 33.3°F0.7°C 98% Calm Calm -- 30.32 in1026.8 mb 0.00 in0.0 mm 0.00 in0.0 mm 0.00 in0.0 mm
07:00 AM 34.3°F1.3°C 33.8°F1.0°C 98% Calm Calm -- 30.32 in1026.8 mb 0.00 in0.0 mm 0.00 in0.0 mm 0.00 in0.0 mm
06:45 AM 34.7°F1.5°C 34.2°F1.2°C 98% Calm Calm -- 30.31 in1026.4 mb 0.00 in0.0 mm 0.00 in0.0 mm 0.00 in0.0 mm
06:30 AM 35.1°F1.7°C 34.6°F1.4°C 98% Calm Calm 0.7 mph1.1 kmh 30.31 in1026.4 mb 0.00 in0.0 mm 0.00 in0.0 mm 0.00 in0.0 mm
06:15 AM 35.2°F1.8°C 34.7°F1.5°C 98% 0.4 mph SW0.6 kmh SW 2.2 mph3.5 kmh 30.31 in1026.4 mb 0.00 in0.0 mm 0.00 in0.0 mm 0.00 in0.0 mm
06:00 AM 34.9°F1.6°C 34.4°F1.3°C 98% 0.5 mph SW0.8 kmh SW 2.2 mph3.5 kmh 30.30 in1026.1 mb 0.00 in0.0 mm 0.00 in0.0 mm 0.00 in0.0 mm
05:45 AM 34.9°F1.6°C 34.4°F1.3°C 98% 1.2 mph SW1.9 kmh SW 3.1 mph5.0 kmh 30.31 in1026.4 mb 0.00 in0.0 mm 0.00 in0.0 mm 0.00 in0.0 mm
05:30 AM 35.2°F1.8°C 34.5°F1.4°C 97% 0.2 mph S0.3 kmh S 1.6 mph2.6 kmh 30.30 in1026.1 mb 0.00 in0.0 mm 0.00 in0.0 mm 0.00 in0.0 mm
05:15 AM 35.4°F1.9°C 34.7°F1.5°C 97% 0.4 mph SW0.6 kmh SW 2.2 mph3.5 kmh 30.29 in1025.7 mb 0.00 in0.0 mm 0.00 in0.0 mm 0.00 in0.0 mm
05:00 AM 35.4°F1.9°C 34.7°F1.5°C 97% Calm Calm -- 30.29 in1025.7 mb 0.00 in0.0 mm 0.00 in0.0 mm 0.00 in0.0 mm
04:45 AM 35.6°F2.0°C 34.8°F1.6°C 97% 0.2 mph SW0.3 kmh SW 1.6 mph2.6 kmh 30.29 in1025.7 mb 0.00 in0.0 mm 0.00 in0.0 mm 0.00 in0.0 mm
04:30 AM 36.0°F2.2°C 35.2°F1.8°C 97% Calm Calm -- 30.29 in1025.7 mb 0.00 in0.0 mm 0.00 in0.0 mm 0.00 in0.0 mm
04:15 AM 36.0°F2.2°C 35.2°F1.8°C 97% Calm Calm -- 30.28 in1025.4 mb 0.00 in0.0 mm 0.00 in0.0 mm 0.00 in0.0 mm
04:00 AM 36.3°F2.4°C 35.6°F2.0°C 97% Calm Calm 1.6 mph2.6 kmh 30.28 in1025.4 mb 0.00 in0.0 mm 0.00 in0.0 mm 0.00 in0.0 mm
03:45 AM 36.7°F2.6°C 35.9°F2.2°C 97% Calm Calm -- 30.28 in1025.4 mb 0.00 in0.0 mm 0.00 in0.0 mm 0.00 in0.0 mm
03:30 AM 36.9°F2.7°C 36.1°F2.3°C 97% Calm Calm -- 30.28 in1025.4 mb 0.00 in0.0 mm 0.00 in0.0 mm 0.00 in0.0 mm
03:15 AM 37.0°F2.8°C 36.3°F2.4°C 97% Calm Calm -- 30.28 in1025.4 mb 0.00 in0.0 mm 0.00 in0.0 mm 0.00 in0.0 mm
03:00 AM 37.4°F3.0°C 36.6°F2.6°C 97% Calm Calm -- 30.28 in1025.4 mb 0.00 in0.0 mm 0.00 in0.0 mm 0.00 in0.0 mm
02:45 AM 37.6°F3.1°C 36.8°F2.7°C 97% Calm Calm -- 30.28 in1025.4 mb 0.00 in0.0 mm 0.00 in0.0 mm 0.00 in0.0 mm
02:30 AM 37.6°F3.1°C 36.5°F2.5°C 96% Calm Calm -- 30.27 in1025.1 mb 0.00 in0.0 mm 0.00 in0.0 mm 0.00 in0.0 mm
02:15 AM 38.1°F3.4°C 37.1°F2.8°C 96% 0.4 mph SW0.6 kmh SW 2.2 mph3.5 kmh 30.27 in1025.1 mb 0.00 in0.0 mm 0.00 in0.0 mm 0.00 in0.0 mm
02:00 AM 38.8°F3.8°C 37.8°F3.2°C 96% Calm Calm 1.6 mph2.6 kmh 30.28 in1025.4 mb 0.00 in0.0 mm 0.00 in0.0 mm 0.00 in0.0 mm
01:45 AM 39.0°F3.9°C 37.7°F3.2°C 95% 0.3 mph SW0.5 kmh SW 2.2 mph3.5 kmh 30.27 in1025.1 mb 0.00 in0.0 mm 0.00 in0.0 mm 0.00 in0.0 mm
01:30 AM 39.4°F4.1°C 38.1°F3.4°C 95% Calm Calm -- 30.27 in1025.1 mb 0.00 in0.0 mm 0.00 in0.0 mm 0.00 in0.0 mm
01:15 AM 39.7°F4.3°C 38.4°F3.6°C 95% Calm Calm -- 30.26 in1024.7 mb 0.00 in0.0 mm 0.00 in0.0 mm 0.00 in0.0 mm
01:00 AM 39.9°F4.4°C 38.6°F3.7°C 95% Calm Calm -- 30.26 in1024.7 mb 0.00 in0.0 mm 0.00 in0.0 mm 0.00 in0.0 mm
12:45 AM 40.6°F4.8°C 39.0°F3.9°C 94% Calm Calm -- 30.26 in1024.7 mb 0.00 in0.0 mm 0.00 in0.0 mm 0.00 in0.0 mm
12:30 AM 41.0°F5.0°C 39.4°F4.1°C 94% Calm Calm -- 30.26 in1024.7 mb 0.00 in0.0 mm 0.00 in0.0 mm 0.00 in0.0 mm
12:15 AM 41.5°F5.3°C 39.7°F4.3°C 93% Calm Calm -- 30.26 in1024.7 mb 0.00 in0.0 mm 0.00 in0.0 mm 0.00 in0.0 mm
12:00 AM 41.9°F5.5°C 40.0°F4.4°C 93% Calm Calm 1.6 mph2.6 kmh 30.26 in1024.7 mb 0.00 in0.0 mm 0.00 in0.0 mm 0.00 in0.0 mm